sensor_id;sensor_type;location;lat;lon;timestamp;P1;durP1;ratioP1;P2;durP2;ratioP2
73900;SDS011;62235;52.160;7.526;2022-10-17T00:01:27;9.18;;;7.25;;
73900;SDS011;62235;52.160;7.526;2022-10-17T00:03:52;8.30;;;6.85;;
73900;SDS011;62235;52.160;7.526;2022-10-17T00:06:17;11.03;;;7.60;;
73900;SDS011;62235;52.160;7.526;2022-10-17T00:08:43;10.00;;;7.00;;
73900;SDS011;62235;52.160;7.526;2022-10-17T00:11:14;10.02;;;6.68;;
73900;SDS011;62235;52.160;7.526;2022-10-17T00:13:41;8.05;;;6.18;;
73900;SDS011;62235;52.160;7.526;2022-10-17T00:16:06;7.37;;;6.13;;
73900;SDS011;62235;52.160;7.526;2022-10-17T00:18:32;8.98;;;6.72;;
73900;SDS011;62235;52.160;7.526;2022-10-17T00:20:57;8.25;;;7.07;;
73900;SDS011;62235;52.160;7.526;2022-10-17T00:23:22;9.10;;;6.80;;
73900;SDS011;62235;52.160;7.526;2022-10-17T00:25:56;10.63;;;6.90;;
73900;SDS011;62235;52.160;7.526;2022-10-17T00:28:22;8.57;;;6.25;;
73900;SDS011;62235;52.160;7.526;2022-10-17T00:30:53;9.33;;;6.40;;
73900;SDS011;62235;52.160;7.526;2022-10-17T00:33:26;10.15;;;6.70;;
73900;SDS011;62235;52.160;7.526;2022-10-17T00:36:08;8.65;;;6.32;;
73900;SDS011;62235;52.160;7.526;2022-10-17T00:38:37;7.60;;;6.07;;
73900;SDS011;62235;52.160;7.526;2022-10-17T00:41:04;7.82;;;6.25;;
73900;SDS011;62235;52.160;7.526;2022-10-17T00:43:47;7.55;;;6.18;;
73900;SDS011;62235;52.160;7.526;2022-10-17T00:46:16;8.70;;;5.22;;
73900;SDS011;62235;52.160;7.526;2022-10-17T00:48:42;9.10;;;6.43;;
73900;SDS011;62235;52.160;7.526;2022-10-17T00:51:08;9.05;;;5.60;;
73900;SDS011;62235;52.160;7.526;2022-10-17T00:53:33;8.80;;;6.30;;
73900;SDS011;62235;52.160;7.526;2022-10-17T00:55:59;8.77;;;5.80;;
73900;SDS011;62235;52.160;7.526;2022-10-17T00:58:25;10.63;;;6.60;;
73900;SDS011;62235;52.160;7.526;2022-10-17T01:00:50;10.10;;;6.37;;
73900;SDS011;62235;52.160;7.526;2022-10-17T01:03:16;9.33;;;6.60;;
73900;SDS011;62235;52.160;7.526;2022-10-17T01:05:41;9.20;;;5.93;;
73900;SDS011;62235;52.160;7.526;2022-10-17T01:08:06;12.05;;;5.90;;
73900;SDS011;62235;52.160;7.526;2022-10-17T01:10:34;8.15;;;5.97;;
73900;SDS011;62235;52.160;7.526;2022-10-17T01:13:24;13.00;;;6.57;;
73900;SDS011;62235;52.160;7.526;2022-10-17T01:21:45;5.95;;;5.10;;
73900;SDS011;62235;52.160;7.526;2022-10-17T01:30:10;7.20;;;5.10;;
73900;SDS011;62235;52.160;7.526;2022-10-17T01:33:07;7.82;;;5.57;;
73900;SDS011;62235;52.160;7.526;2022-10-17T01:35:37;8.68;;;5.38;;
73900;SDS011;62235;52.160;7.526;2022-10-17T01:41:02;9.60;;;4.90;;
73900;SDS011;62235;52.160;7.526;2022-10-17T01:43:33;7.63;;;5.20;;
73900;SDS011;62235;52.160;7.526;2022-10-17T01:48:52;7.00;;;4.78;;
73900;SDS011;62235;52.160;7.526;2022-10-17T01:51:19;7.50;;;5.60;;
73900;SDS011;62235;52.160;7.526;2022-10-17T01:53:49;10.55;;;5.60;;
73900;SDS011;62235;52.160;7.526;2022-10-17T01:56:21;7.63;;;5.35;;
73900;SDS011;62235;52.160;7.526;2022-10-17T01:58:50;6.45;;;5.40;;
73900;SDS011;62235;52.160;7.526;2022-10-17T02:01:19;10.07;;;5.80;;
73900;SDS011;62235;52.160;7.526;2022-10-17T02:03:45;9.30;;;6.07;;
73900;SDS011;62235;52.160;7.526;2022-10-17T02:06:12;8.68;;;5.70;;
73900;SDS011;62235;52.160;7.526;2022-10-17T02:08:45;7.87;;;6.00;;
73900;SDS011;62235;52.160;7.526;2022-10-17T02:16:21;12.10;;;6.53;;
73900;SDS011;62235;52.160;7.526;2022-10-17T02:27:09;7.55;;;5.38;;
73900;SDS011;62235;52.160;7.526;2022-10-17T02:29:38;6.22;;;5.03;;
73900;SDS011;62235;52.160;7.526;2022-10-17T02:37:07;9.13;;;5.72;;
73900;SDS011;62235;52.160;7.526;2022-10-17T02:39:34;7.70;;;5.60;;
73900;SDS011;62235;52.160;7.526;2022-10-17T02:42:01;6.75;;;5.70;;
73900;SDS011;62235;52.160;7.526;2022-10-17T02:44:28;7.85;;;5.28;;
73900;SDS011;62235;52.160;7.526;2022-10-17T02:46:58;7.50;;;5.55;;
73900;SDS011;62235;52.160;7.526;2022-10-17T02:49:28;7.57;;;5.38;;
73900;SDS011;62235;52.160;7.526;2022-10-17T02:55:03;7.05;;;5.93;;
73900;SDS011;62235;52.160;7.526;2022-10-17T02:57:35;10.45;;;6.50;;
73900;SDS011;62235;52.160;7.526;2022-10-17T03:00:03;11.50;;;6.13;;
73900;SDS011;62235;52.160;7.526;2022-10-17T03:02:37;9.32;;;6.40;;
73900;SDS011;62235;52.160;7.526;2022-10-17T03:05:03;9.00;;;6.03;;
73900;SDS011;62235;52.160;7.526;2022-10-17T03:07:29;9.63;;;6.78;;
73900;SDS011;62235;52.160;7.526;2022-10-17T03:09:54;12.47;;;7.10;;
73900;SDS011;62235;52.160;7.526;2022-10-17T03:12:19;11.52;;;6.47;;
73900;SDS011;62235;52.160;7.526;2022-10-17T03:14:45;8.83;;;6.00;;
73900;SDS011;62235;52.160;7.526;2022-10-17T03:17:10;8.83;;;5.87;;
73900;SDS011;62235;52.160;7.526;2022-10-17T03:19:35;10.00;;;5.82;;
73900;SDS011;62235;52.160;7.526;2022-10-17T03:22:01;10.57;;;5.90;;
73900;SDS011;62235;52.160;7.526;2022-10-17T03:24:26;10.17;;;5.07;;
73900;SDS011;62235;52.160;7.526;2022-10-17T03:26:51;10.30;;;5.17;;
73900;SDS011;62235;52.160;7.526;2022-10-17T03:29:16;9.10;;;5.67;;
73900;SDS011;62235;52.160;7.526;2022-10-17T03:31:42;8.83;;;5.07;;
73900;SDS011;62235;52.160;7.526;2022-10-17T03:34:07;9.63;;;5.60;;
73900;SDS011;62235;52.160;7.526;2022-10-17T03:36:32;6.68;;;5.10;;
73900;SDS011;62235;52.160;7.526;2022-10-17T03:38:58;8.60;;;5.75;;
73900;SDS011;62235;52.160;7.526;2022-10-17T03:41:23;10.17;;;5.80;;
73900;SDS011;62235;52.160;7.526;2022-10-17T03:43:48;8.30;;;5.43;;
73900;SDS011;62235;52.160;7.526;2022-10-17T03:46:14;9.93;;;5.37;;
73900;SDS011;62235;52.160;7.526;2022-10-17T03:48:39;7.43;;;5.20;;
73900;SDS011;62235;52.160;7.526;2022-10-17T03:51:05;13.97;;;5.77;;
73900;SDS011;62235;52.160;7.526;2022-10-17T03:53:32;9.68;;;5.78;;
73900;SDS011;62235;52.160;7.526;2022-10-17T03:56:07;9.05;;;5.75;;
73900;SDS011;62235;52.160;7.526;2022-10-17T03:58:34;7.45;;;5.78;;
73900;SDS011;62235;52.160;7.526;2022-10-17T04:01:03;8.07;;;5.43;;
73900;SDS011;62235;52.160;7.526;2022-10-17T04:03:30;7.47;;;5.20;;
73900;SDS011;62235;52.160;7.526;2022-10-17T04:05:57;8.40;;;5.80;;
73900;SDS011;62235;52.160;7.526;2022-10-17T04:08:24;9.15;;;5.28;;
73900;SDS011;62235;52.160;7.526;2022-10-17T04:10:49;13.30;;;6.13;;
73900;SDS011;62235;52.160;7.526;2022-10-17T04:13:15;12.00;;;6.75;;
73900;SDS011;62235;52.160;7.526;2022-10-17T04:15:40;11.70;;;6.60;;
73900;SDS011;62235;52.160;7.526;2022-10-17T04:18:05;10.63;;;6.30;;
73900;SDS011;62235;52.160;7.526;2022-10-17T04:20:30;11.97;;;6.77;;
73900;SDS011;62235;52.160;7.526;2022-10-17T04:22:56;12.40;;;7.40;;
73900;SDS011;62235;52.160;7.526;2022-10-17T04:25:21;11.80;;;6.63;;
73900;SDS011;62235;52.160;7.526;2022-10-17T04:27:46;12.43;;;7.83;;
73900;SDS011;62235;52.160;7.526;2022-10-17T04:30:13;17.35;;;8.27;;
73900;SDS011;62235;52.160;7.526;2022-10-17T04:32:39;9.65;;;7.03;;
73900;SDS011;62235;52.160;7.526;2022-10-17T04:35:04;15.73;;;7.77;;
73900;SDS011;62235;52.160;7.526;2022-10-17T04:37:30;9.65;;;6.90;;
73900;SDS011;62235;52.160;7.526;2022-10-17T04:39:55;10.83;;;6.73;;
73900;SDS011;62235;52.160;7.526;2022-10-17T04:42:20;11.88;;;7.65;;
73900;SDS011;62235;52.160;7.526;2022-10-17T04:44:45;11.90;;;6.90;;
73900;SDS011;62235;52.160;7.526;2022-10-17T04:47:11;11.10;;;6.50;;
73900;SDS011;62235;52.160;7.526;2022-10-17T04:49:36;12.37;;;7.67;;
73900;SDS011;62235;52.160;7.526;2022-10-17T04:52:01;11.60;;;7.90;;
73900;SDS011;62235;52.160;7.526;2022-10-17T04:54:27;11.07;;;7.03;;
73900;SDS011;62235;52.160;7.526;2022-10-17T04:56:52;11.90;;;6.10;;
73900;SDS011;62235;52.160;7.526;2022-10-17T04:59:17;11.33;;;7.00;;
73900;SDS011;62235;52.160;7.526;2022-10-17T05:01:43;12.17;;;7.57;;
73900;SDS011;62235;52.160;7.526;2022-10-17T05:04:08;11.13;;;6.87;;
73900;SDS011;62235;52.160;7.526;2022-10-17T05:06:33;13.03;;;7.43;;
73900;SDS011;62235;52.160;7.526;2022-10-17T05:08:58;10.07;;;6.85;;
73900;SDS011;62235;52.160;7.526;2022-10-17T05:11:26;12.68;;;7.00;;
73900;SDS011;62235;52.160;7.526;2022-10-17T05:13:52;14.35;;;7.90;;
73900;SDS011;62235;52.160;7.526;2022-10-17T05:16:19;12.18;;;7.10;;
73900;SDS011;62235;52.160;7.526;2022-10-17T05:18:47;13.63;;;7.25;;
73900;SDS011;62235;52.160;7.526;2022-10-17T05:21:14;14.43;;;7.78;;
73900;SDS011;62235;52.160;7.526;2022-10-17T05:23:39;12.63;;;7.87;;
73900;SDS011;62235;52.160;7.526;2022-10-17T05:26:04;10.03;;;6.63;;
73900;SDS011;62235;52.160;7.526;2022-10-17T05:28:29;11.50;;;7.30;;
73900;SDS011;62235;52.160;7.526;2022-10-17T05:30:55;10.20;;;7.38;;
73900;SDS011;62235;52.160;7.526;2022-10-17T05:33:21;15.23;;;7.60;;
73900;SDS011;62235;52.160;7.526;2022-10-17T05:35:46;10.57;;;6.50;;
73900;SDS011;62235;52.160;7.526;2022-10-17T05:38:12;11.07;;;8.03;;
73900;SDS011;62235;52.160;7.526;2022-10-17T05:40:37;12.13;;;6.17;;
73900;SDS011;62235;52.160;7.526;2022-10-17T05:43:03;12.88;;;6.80;;
73900;SDS011;62235;52.160;7.526;2022-10-17T05:45:28;10.20;;;6.93;;
73900;SDS011;62235;52.160;7.526;2022-10-17T05:47:54;14.27;;;6.30;;
73900;SDS011;62235;52.160;7.526;2022-10-17T05:50:19;11.33;;;7.17;;
73900;SDS011;62235;52.160;7.526;2022-10-17T05:52:51;10.68;;;7.35;;
73900;SDS011;62235;52.160;7.526;2022-10-17T05:55:17;12.93;;;7.18;;
73900;SDS011;62235;52.160;7.526;2022-10-17T05:57:43;12.27;;;6.63;;
73900;SDS011;62235;52.160;7.526;2022-10-17T06:00:08;11.83;;;7.00;;
73900;SDS011;62235;52.160;7.526;2022-10-17T06:02:34;11.90;;;6.72;;
73900;SDS011;62235;52.160;7.526;2022-10-17T06:04:59;11.35;;;6.90;;
73900;SDS011;62235;52.160;7.526;2022-10-17T06:07:24;10.40;;;6.38;;
73900;SDS011;62235;52.160;7.526;2022-10-17T06:09:50;13.23;;;7.63;;
73900;SDS011;62235;52.160;7.526;2022-10-17T06:12:15;12.40;;;7.27;;
73900;SDS011;62235;52.160;7.526;2022-10-17T06:14:40;11.00;;;6.57;;
73900;SDS011;62235;52.160;7.526;2022-10-17T06:17:06;12.43;;;8.07;;
73900;SDS011;62235;52.160;7.526;2022-10-17T06:19:31;12.02;;;7.72;;
73900;SDS011;62235;52.160;7.526;2022-10-17T06:21:56;12.23;;;7.43;;
73900;SDS011;62235;52.160;7.526;2022-10-17T06:24:21;9.67;;;7.20;;
73900;SDS011;62235;52.160;7.526;2022-10-17T06:26:47;12.18;;;7.35;;
73900;SDS011;62235;52.160;7.526;2022-10-17T06:29:13;10.93;;;6.00;;
73900;SDS011;62235;52.160;7.526;2022-10-17T06:31:39;11.38;;;6.57;;
73900;SDS011;62235;52.160;7.526;2022-10-17T06:34:04;10.17;;;6.77;;
73900;SDS011;62235;52.160;7.526;2022-10-17T06:36:29;12.80;;;6.55;;
73900;SDS011;62235;52.160;7.526;2022-10-17T06:38:55;12.60;;;6.90;;
73900;SDS011;62235;52.160;7.526;2022-10-17T06:41:20;14.43;;;6.10;;
73900;SDS011;62235;52.160;7.526;2022-10-17T06:43:45;21.20;;;7.53;;
73900;SDS011;62235;52.160;7.526;2022-10-17T06:46:12;9.68;;;7.00;;
73900;SDS011;62235;52.160;7.526;2022-10-17T06:48:38;10.15;;;6.32;;
73900;SDS011;62235;52.160;7.526;2022-10-17T06:51:03;13.43;;;7.00;;
73900;SDS011;62235;52.160;7.526;2022-10-17T06:53:30;14.27;;;7.22;;
73900;SDS011;62235;52.160;7.526;2022-10-17T06:55:57;14.50;;;6.65;;
73900;SDS011;62235;52.160;7.526;2022-10-17T06:58:27;9.85;;;6.15;;
73900;SDS011;62235;52.160;7.526;2022-10-17T07:00:57;11.55;;;6.97;;
73900;SDS011;62235;52.160;7.526;2022-10-17T07:03:29;11.48;;;6.63;;
73900;SDS011;62235;52.160;7.526;2022-10-17T07:05:55;12.20;;;6.55;;
73900;SDS011;62235;52.160;7.526;2022-10-17T07:08:21;11.52;;;6.90;;
73900;SDS011;62235;52.160;7.526;2022-10-17T07:10:46;10.30;;;6.35;;
73900;SDS011;62235;52.160;7.526;2022-10-17T07:13:11;9.32;;;6.53;;
73900;SDS011;62235;52.160;7.526;2022-10-17T07:15:37;9.73;;;6.23;;
73900;SDS011;62235;52.160;7.526;2022-10-17T07:18:02;11.93;;;6.43;;
73900;SDS011;62235;52.160;7.526;2022-10-17T07:20:28;12.60;;;5.97;;
73900;SDS011;62235;52.160;7.526;2022-10-17T07:22:53;10.67;;;7.10;;
73900;SDS011;62235;52.160;7.526;2022-10-17T07:25:19;14.15;;;7.20;;
73900;SDS011;62235;52.160;7.526;2022-10-17T07:27:45;9.88;;;6.90;;
73900;SDS011;62235;52.160;7.526;2022-10-17T07:30:10;12.75;;;7.15;;
73900;SDS011;62235;52.160;7.526;2022-10-17T07:32:35;10.68;;;7.18;;
73900;SDS011;62235;52.160;7.526;2022-10-17T07:35:01;9.67;;;6.67;;
73900;SDS011;62235;52.160;7.526;2022-10-17T07:37:26;11.45;;;6.60;;
73900;SDS011;62235;52.160;7.526;2022-10-17T07:39:52;10.50;;;6.70;;
73900;SDS011;62235;52.160;7.526;2022-10-17T07:42:17;11.03;;;6.93;;
73900;SDS011;62235;52.160;7.526;2022-10-17T07:44:42;11.40;;;6.40;;
73900;SDS011;62235;52.160;7.526;2022-10-17T07:47:11;12.63;;;6.93;;
73900;SDS011;62235;52.160;7.526;2022-10-17T07:49:36;12.00;;;6.00;;
73900;SDS011;62235;52.160;7.526;2022-10-17T07:52:06;12.27;;;7.28;;
73900;SDS011;62235;52.160;7.526;2022-10-17T07:54:34;10.20;;;6.72;;
73900;SDS011;62235;52.160;7.526;2022-10-17T07:56:59;12.57;;;6.20;;
73900;SDS011;62235;52.160;7.526;2022-10-17T07:59:24;11.38;;;6.60;;
73900;SDS011;62235;52.160;7.526;2022-10-17T08:01:50;13.77;;;6.10;;
73900;SDS011;62235;52.160;7.526;2022-10-17T08:04:15;10.10;;;6.22;;
73900;SDS011;62235;52.160;7.526;2022-10-17T08:06:41;12.55;;;7.03;;
73900;SDS011;62235;52.160;7.526;2022-10-17T08:09:06;13.40;;;6.80;;
73900;SDS011;62235;52.160;7.526;2022-10-17T08:11:31;12.53;;;5.67;;
73900;SDS011;62235;52.160;7.526;2022-10-17T08:13:57;10.48;;;6.05;;
73900;SDS011;62235;52.160;7.526;2022-10-17T08:16:22;12.13;;;6.30;;
73900;SDS011;62235;52.160;7.526;2022-10-17T08:18:47;9.38;;;6.13;;
73900;SDS011;62235;52.160;7.526;2022-10-17T08:21:13;9.33;;;6.20;;
73900;SDS011;62235;52.160;7.526;2022-10-17T08:23:38;8.90;;;5.93;;
73900;SDS011;62235;52.160;7.526;2022-10-17T08:26:06;11.55;;;6.22;;
73900;SDS011;62235;52.160;7.526;2022-10-17T08:28:34;15.55;;;6.13;;
73900;SDS011;62235;52.160;7.526;2022-10-17T08:31:01;10.65;;;5.50;;
73900;SDS011;62235;52.160;7.526;2022-10-17T08:33:28;11.18;;;6.70;;
73900;SDS011;62235;52.160;7.526;2022-10-17T08:35:53;9.87;;;5.23;;
73900;SDS011;62235;52.160;7.526;2022-10-17T08:38:18;10.27;;;5.67;;
73900;SDS011;62235;52.160;7.526;2022-10-17T08:40:44;9.13;;;6.13;;
73900;SDS011;62235;52.160;7.526;2022-10-17T08:45:57;11.63;;;5.80;;
73900;SDS011;62235;52.160;7.526;2022-10-17T08:48:27;7.85;;;5.72;;
73900;SDS011;62235;52.160;7.526;2022-10-17T08:51:11;8.13;;;5.18;;
73900;SDS011;62235;52.160;7.526;2022-10-17T08:53:47;8.70;;;5.18;;
73900;SDS011;62235;52.160;7.526;2022-10-17T08:56:18;10.20;;;5.00;;
73900;SDS011;62235;52.160;7.526;2022-10-17T08:58:45;6.82;;;4.60;;
73900;SDS011;62235;52.160;7.526;2022-10-17T09:09:36;8.95;;;4.82;;
73900;SDS011;62235;52.160;7.526;2022-10-17T09:13:02;9.38;;;4.93;;
73900;SDS011;62235;52.160;7.526;2022-10-17T09:15:59;7.18;;;5.07;;
73900;SDS011;62235;52.160;7.526;2022-10-17T09:18:36;8.48;;;4.63;;
73900;SDS011;62235;52.160;7.526;2022-10-17T09:21:20;10.85;;;4.72;;
73900;SDS011;62235;52.160;7.526;2022-10-17T09:23:50;9.60;;;5.38;;
73900;SDS011;62235;52.160;7.526;2022-10-17T09:26:16;8.38;;;5.10;;
73900;SDS011;62235;52.160;7.526;2022-10-17T09:28:42;7.07;;;4.68;;
73900;SDS011;62235;52.160;7.526;2022-10-17T09:31:31;15.27;;;5.05;;
73900;SDS011;62235;52.160;7.526;2022-10-17T09:33:59;9.30;;;4.65;;
73900;SDS011;62235;52.160;7.526;2022-10-17T09:36:29;7.00;;;3.83;;
73900;SDS011;62235;52.160;7.526;2022-10-17T09:38:58;8.50;;;4.68;;
73900;SDS011;62235;52.160;7.526;2022-10-17T09:41:35;8.70;;;4.30;;
73900;SDS011;62235;52.160;7.526;2022-10-17T09:46:38;8.00;;;4.18;;
73900;SDS011;62235;52.160;7.526;2022-10-17T09:49:11;5.97;;;3.78;;
73900;SDS011;62235;52.160;7.526;2022-10-17T09:51:39;6.18;;;3.95;;
73900;SDS011;62235;52.160;7.526;2022-10-17T09:54:11;20.27;;;4.70;;
73900;SDS011;62235;52.160;7.526;2022-10-17T09:57:01;7.32;;;3.70;;
73900;SDS011;62235;52.160;7.526;2022-10-17T09:59:36;9.02;;;3.92;;
73900;SDS011;62235;52.160;7.526;2022-10-17T10:07:18;9.20;;;3.80;;
73900;SDS011;62235;52.160;7.526;2022-10-17T10:09:45;7.82;;;3.50;;
73900;SDS011;62235;52.160;7.526;2022-10-17T10:12:18;5.72;;;3.78;;
73900;SDS011;62235;52.160;7.526;2022-10-17T10:14:46;8.20;;;3.50;;
73900;SDS011;62235;52.160;7.526;2022-10-17T10:17:29;10.15;;;3.58;;
73900;SDS011;62235;52.160;7.526;2022-10-17T10:19:59;5.28;;;3.83;;
73900;SDS011;62235;52.160;7.526;2022-10-17T10:22:24;7.70;;;4.18;;
73900;SDS011;62235;52.160;7.526;2022-10-17T10:27:52;5.60;;;3.47;;
73900;SDS011;62235;52.160;7.526;2022-10-17T10:30:18;5.60;;;3.25;;
73900;SDS011;62235;52.160;7.526;2022-10-17T10:32:46;7.93;;;3.17;;
73900;SDS011;62235;52.160;7.526;2022-10-17T10:35:23;8.60;;;3.25;;
73900;SDS011;62235;52.160;7.526;2022-10-17T10:37:54;10.15;;;3.75;;
73900;SDS011;62235;52.160;7.526;2022-10-17T10:40:30;6.03;;;3.55;;
73900;SDS011;62235;52.160;7.526;2022-10-17T10:42:59;8.32;;;3.90;;
73900;SDS011;62235;52.160;7.526;2022-10-17T10:45:38;15.07;;;3.40;;
73900;SDS011;62235;52.160;7.526;2022-10-17T10:53:06;4.82;;;3.03;;
73900;SDS011;62235;52.160;7.526;2022-10-17T10:55:41;6.72;;;3.80;;
73900;SDS011;62235;52.160;7.526;2022-10-17T10:58:33;7.43;;;3.92;;
73900;SDS011;62235;52.160;7.526;2022-10-17T11:01:18;8.60;;;4.13;;
73900;SDS011;62235;52.160;7.526;2022-10-17T11:03:51;5.57;;;3.13;;
73900;SDS011;62235;52.160;7.526;2022-10-17T11:06:23;8.25;;;4.18;;
73900;SDS011;62235;52.160;7.526;2022-10-17T11:09:03;7.75;;;3.85;;
73900;SDS011;62235;52.160;7.526;2022-10-17T11:11:54;5.10;;;3.42;;
73900;SDS011;62235;52.160;7.526;2022-10-17T11:14:31;6.38;;;3.92;;
73900;SDS011;62235;52.160;7.526;2022-10-17T11:17:04;8.10;;;3.40;;
73900;SDS011;62235;52.160;7.526;2022-10-17T11:19:35;4.88;;;2.80;;
73900;SDS011;62235;52.160;7.526;2022-10-17T11:22:15;8.00;;;3.80;;
73900;SDS011;62235;52.160;7.526;2022-10-17T11:24:52;8.43;;;3.80;;
73900;SDS011;62235;52.160;7.526;2022-10-17T11:27:21;9.43;;;4.00;;
73900;SDS011;62235;52.160;7.526;2022-10-17T11:29:47;7.22;;;4.00;;
73900;SDS011;62235;52.160;7.526;2022-10-17T11:32:26;11.65;;;3.95;;
73900;SDS011;62235;52.160;7.526;2022-10-17T11:35:02;7.32;;;3.50;;
73900;SDS011;62235;52.160;7.526;2022-10-17T11:37:30;10.43;;;3.55;;
73900;SDS011;62235;52.160;7.526;2022-10-17T11:40:03;5.63;;;3.65;;
73900;SDS011;62235;52.160;7.526;2022-10-17T11:42:41;8.30;;;4.00;;
73900;SDS011;62235;52.160;7.526;2022-10-17T11:45:34;9.63;;;4.15;;
73900;SDS011;62235;52.160;7.526;2022-10-17T11:48:10;8.07;;;3.95;;
73900;SDS011;62235;52.160;7.526;2022-10-17T11:55:41;10.60;;;4.45;;
73900;SDS011;62235;52.160;7.526;2022-10-17T12:04:13;8.95;;;4.43;;
73900;SDS011;62235;52.160;7.526;2022-10-17T12:11:53;9.33;;;4.00;;
73900;SDS011;62235;52.160;7.526;2022-10-17T12:16:57;9.55;;;3.90;;
73900;SDS011;62235;52.160;7.526;2022-10-17T12:19:24;8.48;;;4.15;;
73900;SDS011;62235;52.160;7.526;2022-10-17T12:21:54;10.88;;;5.45;;
73900;SDS011;62235;52.160;7.526;2022-10-17T12:24:33;6.75;;;4.10;;
73900;SDS011;62235;52.160;7.526;2022-10-17T12:29:57;8.95;;;4.15;;
73900;SDS011;62235;52.160;7.526;2022-10-17T12:32:23;10.48;;;4.82;;
73900;SDS011;62235;52.160;7.526;2022-10-17T12:34:52;10.20;;;4.50;;
73900;SDS011;62235;52.160;7.526;2022-10-17T12:43:31;7.38;;;4.90;;
73900;SDS011;62235;52.160;7.526;2022-10-17T12:51:04;8.02;;;4.90;;
73900;SDS011;62235;52.160;7.526;2022-10-17T12:56:13;7.75;;;4.90;;
73900;SDS011;62235;52.160;7.526;2022-10-17T12:58:42;6.50;;;4.65;;
73900;SDS011;62235;52.160;7.526;2022-10-17T13:03:43;9.55;;;5.55;;
73900;SDS011;62235;52.160;7.526;2022-10-17T13:08:39;7.88;;;4.65;;
73900;SDS011;62235;52.160;7.526;2022-10-17T13:11:08;8.02;;;4.72;;
73900;SDS011;62235;52.160;7.526;2022-10-17T13:13:44;9.00;;;4.55;;
73900;SDS011;62235;52.160;7.526;2022-10-17T13:16:29;10.43;;;5.47;;
73900;SDS011;62235;52.160;7.526;2022-10-17T13:18:55;8.80;;;4.65;;
73900;SDS011;62235;52.160;7.526;2022-10-17T13:21:20;9.43;;;5.20;;
73900;SDS011;62235;52.160;7.526;2022-10-17T13:23:46;10.27;;;5.17;;
73900;SDS011;62235;52.160;7.526;2022-10-17T13:26:17;9.88;;;4.93;;
73900;SDS011;62235;52.160;7.526;2022-10-17T13:28:44;6.57;;;4.10;;
73900;SDS011;62235;52.160;7.526;2022-10-17T13:31:31;8.05;;;4.43;;
73900;SDS011;62235;52.160;7.526;2022-10-17T13:33:59;10.43;;;6.60;;
73900;SDS011;62235;52.160;7.526;2022-10-17T13:36:26;15.07;;;8.80;;
73900;SDS011;62235;52.160;7.526;2022-10-17T13:38:52;8.65;;;6.63;;
73900;SDS011;62235;52.160;7.526;2022-10-17T13:41:20;12.35;;;5.78;;
73900;SDS011;62235;52.160;7.526;2022-10-17T13:43:50;15.20;;;5.60;;
73900;SDS011;62235;52.160;7.526;2022-10-17T13:46:24;10.65;;;5.10;;
73900;SDS011;62235;52.160;7.526;2022-10-17T13:48:54;7.65;;;5.07;;
73900;SDS011;62235;52.160;7.526;2022-10-17T13:51:20;8.85;;;5.68;;
73900;SDS011;62235;52.160;7.526;2022-10-17T13:53:47;7.90;;;5.05;;
73900;SDS011;62235;52.160;7.526;2022-10-17T14:01:12;10.48;;;5.20;;
73900;SDS011;62235;52.160;7.526;2022-10-17T14:03:39;10.00;;;6.70;;
73900;SDS011;62235;52.160;7.526;2022-10-17T14:06:07;9.73;;;5.60;;
73900;SDS011;62235;52.160;7.526;2022-10-17T14:11:28;9.50;;;5.90;;
73900;SDS011;62235;52.160;7.526;2022-10-17T14:14:02;11.90;;;7.03;;
73900;SDS011;62235;52.160;7.526;2022-10-17T14:16:39;9.50;;;5.28;;
73900;SDS011;62235;52.160;7.526;2022-10-17T14:19:12;13.45;;;6.55;;
73900;SDS011;62235;52.160;7.526;2022-10-17T14:21:46;9.00;;;5.22;;
73900;SDS011;62235;52.160;7.526;2022-10-17T14:26:50;9.60;;;5.22;;
73900;SDS011;62235;52.160;7.526;2022-10-17T14:29:21;11.88;;;5.93;;
73900;SDS011;62235;52.160;7.526;2022-10-17T14:31:48;8.90;;;5.25;;
73900;SDS011;62235;52.160;7.526;2022-10-17T14:34:25;11.80;;;6.35;;
73900;SDS011;62235;52.160;7.526;2022-10-17T14:36:53;9.15;;;6.10;;
73900;SDS011;62235;52.160;7.526;2022-10-17T14:39:19;11.85;;;7.65;;
73900;SDS011;62235;52.160;7.526;2022-10-17T14:44:14;12.43;;;6.20;;
73900;SDS011;62235;52.160;7.526;2022-10-17T14:46:43;15.32;;;6.47;;
73900;SDS011;62235;52.160;7.526;2022-10-17T14:49:32;9.98;;;6.15;;
73900;SDS011;62235;52.160;7.526;2022-10-17T14:54:55;9.93;;;5.75;;
73900;SDS011;62235;52.160;7.526;2022-10-17T14:57:28;13.15;;;6.30;;
73900;SDS011;62235;52.160;7.526;2022-10-17T14:59:56;12.60;;;6.00;;
73900;SDS011;62235;52.160;7.526;2022-10-17T15:02:25;10.27;;;5.85;;
73900;SDS011;62235;52.160;7.526;2022-10-17T15:04:52;11.50;;;6.47;;
73900;SDS011;62235;52.160;7.526;2022-10-17T15:07:17;10.18;;;5.97;;
73900;SDS011;62235;52.160;7.526;2022-10-17T15:09:46;10.77;;;5.82;;
73900;SDS011;62235;52.160;7.526;2022-10-17T15:12:16;11.32;;;7.57;;
73900;SDS011;62235;52.160;7.526;2022-10-17T15:14:43;11.55;;;6.20;;
73900;SDS011;62235;52.160;7.526;2022-10-17T15:17:11;12.23;;;6.40;;
73900;SDS011;62235;52.160;7.526;2022-10-17T15:19:38;12.80;;;6.82;;
73900;SDS011;62235;52.160;7.526;2022-10-17T15:22:03;12.10;;;6.73;;
73900;SDS011;62235;52.160;7.526;2022-10-17T15:24:28;8.73;;;6.20;;
73900;SDS011;62235;52.160;7.526;2022-10-17T15:26:54;10.23;;;6.40;;
73900;SDS011;62235;52.160;7.526;2022-10-17T15:29:20;10.80;;;5.82;;
73900;SDS011;62235;52.160;7.526;2022-10-17T15:31:45;10.17;;;5.37;;
73900;SDS011;62235;52.160;7.526;2022-10-17T15:34:11;10.60;;;5.83;;
73900;SDS011;62235;52.160;7.526;2022-10-17T15:36:39;10.90;;;6.30;;
73900;SDS011;62235;52.160;7.526;2022-10-17T15:39:06;5.97;;;3.55;;
73900;SDS011;62235;52.160;7.526;2022-10-17T15:41:32;10.88;;;6.05;;
73900;SDS011;62235;52.160;7.526;2022-10-17T15:43:57;12.48;;;5.82;;
73900;SDS011;62235;52.160;7.526;2022-10-17T15:46:27;11.07;;;5.65;;
73900;SDS011;62235;52.160;7.526;2022-10-17T15:48:54;6.95;;;3.80;;
73900;SDS011;62235;52.160;7.526;2022-10-17T15:51:20;10.52;;;4.55;;
73900;SDS011;62235;52.160;7.526;2022-10-17T15:53:46;16.02;;;6.70;;
73900;SDS011;62235;52.160;7.526;2022-10-17T15:56:17;16.15;;;6.13;;
73900;SDS011;62235;52.160;7.526;2022-10-17T15:58:44;9.88;;;5.40;;
73900;SDS011;62235;52.160;7.526;2022-10-17T16:01:14;10.35;;;5.63;;
73900;SDS011;62235;52.160;7.526;2022-10-17T16:03:43;19.45;;;10.13;;
73900;SDS011;62235;52.160;7.526;2022-10-17T16:06:11;22.27;;;12.35;;
73900;SDS011;62235;52.160;7.526;2022-10-17T16:08:36;18.33;;;9.17;;
73900;SDS011;62235;52.160;7.526;2022-10-17T16:11:01;17.53;;;9.10;;
73900;SDS011;62235;52.160;7.526;2022-10-17T16:13:27;15.00;;;7.37;;
73900;SDS011;62235;52.160;7.526;2022-10-17T16:15:52;9.60;;;5.97;;
73900;SDS011;62235;52.160;7.526;2022-10-17T16:18:17;9.53;;;6.10;;
73900;SDS011;62235;52.160;7.526;2022-10-17T16:20:44;13.48;;;6.68;;
73900;SDS011;62235;52.160;7.526;2022-10-17T16:23:11;14.10;;;7.60;;
73900;SDS011;62235;52.160;7.526;2022-10-17T16:25:37;14.30;;;6.72;;
73900;SDS011;62235;52.160;7.526;2022-10-17T16:28:03;10.65;;;6.65;;
73900;SDS011;62235;52.160;7.526;2022-10-17T16:30:30;14.98;;;9.93;;
73900;SDS011;62235;52.160;7.526;2022-10-17T16:32:56;13.93;;;8.77;;
73900;SDS011;62235;52.160;7.526;2022-10-17T16:35:23;23.00;;;10.90;;
73900;SDS011;62235;52.160;7.526;2022-10-17T16:37:50;14.77;;;10.68;;
73900;SDS011;62235;52.160;7.526;2022-10-17T16:40:16;11.75;;;7.45;;
73900;SDS011;62235;52.160;7.526;2022-10-17T16:42:41;9.52;;;5.93;;
73900;SDS011;62235;52.160;7.526;2022-10-17T16:45:07;13.45;;;8.23;;
73900;SDS011;62235;52.160;7.526;2022-10-17T16:47:32;11.80;;;7.00;;
73900;SDS011;62235;52.160;7.526;2022-10-17T16:49:58;12.25;;;6.68;;
73900;SDS011;62235;52.160;7.526;2022-10-17T16:52:23;11.37;;;7.27;;